Airfield :
LOGIN :

Register | Disclaimer

   EN    FR    IT 

 










Legend :    VFR   Marginal VFR   IFR   Intensive IFR   Very Intensive IFR
Visi :
Ceiling :
>= 8 km
>= 3000ft
5 to 8 km
1000 to 3000 ft
1500m to 5 km
500 to 1000 ft
800 to 1500m
200 to 500 ft
< 800m
< 200 ft
Symbols :   Thunderstorms  Fog  Heavy snow  Heavy precipitations  Wind > 20 kt
SIGMETs :     Misc.  Thunderstorms  Icing  Turbulence  Mountain Waves  Volcanic Ashes







- Airport Elevation : 39 ft
- IATA code : CTA


LICC - Catania Fontanarossa

CURRENT METAR :
  • 172050Z 03005KT 9999 FEW030 BKN090 16/11 Q1011

EXPIRED METARs :
  • 172020Z 03004KT 9999 FEW030 BKN100 16/11 Q1011
  • 171950Z 04006KT 010V070 9999 FEW030 BKN100 16/11 Q1011
  • 171920Z 07012KT 9999 SCT030 BKN100 16/11 Q1011
  • 171850Z 08014KT 9999 FEW030 BKN110 17/11 Q1011
  • 171820Z 07013KT 9999 SCT035 BKN100 17/11 Q1012

TAF TAF LICC
Valid from the 17 at 18:00 until the 18 at 18:00 UTC


171700Z 1718/1818 04014KT 9999 SCT040
BECMG 1809/1812 VRB05KT
TEMPO 1815/1818 SHRA
No reported NOTAMs for that airfield.
3 SIGMETs reported for the Roma FIR (LIRR) :
 
Embedded thunderstorms
LIRR SIGMET 4 VALID 172100/180000 LIIB
LIRR ROMA FIR EMBD TS FCST WI N4119 E00822 - N4119 E00946 - N4209 E00946 - N4207 E01046 - N4007 E01213 - N3836 E01113 - N3648 E01503 - N3857 E01626 - N3849 E01855 - N3628 E01858 - N3630 E01131 - N3734 E01131 - N3900 E00755 - N4101 E00800 - N4119 E00822 TOP FL400 STNR NC=
Severe turbulence
LIRR SIGMET 3 VALID 172100/180000 LIIB
LIRR ROMA FIR SEV TURB FCST WI N3851 E01728 - N3851 E01900 - N3630 E01858 - N3630 E01749 - N3851 E01728 SFC/FL050 STNR NC=
Severe turbulence
LIRR SIGMET 1 VALID 171928/172100 LIIB
LIRR ROMA FIR SEV TURB FCST WI N3851 E01746 - N3851 E01900 - N3630 E01859 - N3630 E01749 - N3851 E01746 SFC/FL050 STNR NC=



MET'MAP, your aeronautical weather chart ! - Copyright ORBIFLY December 2007 - Disclaimer

ORBIFLY MET'MAP TEAM :

Programming & Development : Alexandra Zaïnal
Concept & Development : Baudouin d'Aumeries
Co-Development & Prog : Marc-Olivier Méhu
Technical & hardware support : Manuel Goepfert

Contact : metmap@orbifly.com




SOURCES & CREDITS :

   NOAA